createdAt,value
2018-06-15T00:00:24.070Z,37.15
2018-06-15T00:02:57.917Z,36.90
2018-06-15T00:05:26.181Z,35.10
2018-06-15T00:07:54.455Z,31.35
2018-06-15T00:10:22.884Z,31.75
2018-06-15T00:12:51.157Z,31.97
2018-06-15T00:15:19.385Z,35.23
2018-06-15T00:17:47.358Z,31.10
2018-06-15T00:20:15.602Z,35.38
2018-06-15T00:22:43.853Z,36.88
2018-06-15T00:25:12.095Z,38.85
2018-06-15T00:27:40.345Z,36.10
2018-06-15T00:30:08.815Z,36.38
2018-06-15T00:32:37.026Z,35.13
2018-06-15T00:35:05.282Z,35.87
2018-06-15T00:37:33.400Z,34.80
2018-06-15T00:40:01.624Z,37.50
2018-06-15T00:42:29.890Z,38.30
2018-06-15T00:44:58.138Z,36.50
2018-06-15T00:47:26.407Z,35.88
2018-06-15T00:49:54.679Z,39.77
2018-06-15T00:52:22.986Z,41.55
2018-06-15T00:54:51.204Z,34.70
2018-06-15T00:57:30.957Z,40.48
2018-06-15T00:59:58.929Z,36.85
2018-06-15T01:02:27.217Z,37.50
2018-06-15T01:04:55.502Z,38.25
2018-06-15T01:07:23.515Z,36.93
2018-06-15T01:09:51.739Z,37.00
2018-06-15T01:12:19.985Z,38.20
2018-06-15T01:14:48.245Z,40.20
2018-06-15T01:17:16.630Z,35.65
2018-06-15T01:19:44.915Z,36.35
2018-06-15T01:22:13.132Z,36.48
2018-06-15T01:24:41.370Z,40.98
2018-06-15T01:27:09.601Z,38.23
2018-06-15T01:29:37.847Z,39.55
2018-06-15T01:32:06.058Z,41.28
2018-06-15T01:34:34.311Z,36.53
2018-06-15T01:37:02.576Z,43.40
2018-06-15T01:39:30.819Z,46.28
2018-06-15T01:41:59.051Z,45.63
2018-06-15T01:44:27.312Z,38.73
2018-06-15T01:46:55.548Z,41.85
2018-06-15T01:49:23.787Z,40.83
2018-06-15T01:51:52.029Z,38.17
2018-06-15T01:54:20.265Z,41.75
2018-06-15T01:56:48.508Z,42.20
2018-06-15T01:59:16.765Z,49.95
2018-06-15T02:01:45.034Z,44.77
2018-06-15T02:04:13.299Z,42.10
2018-06-15T02:06:41.544Z,45.78
2018-06-15T02:09:10.202Z,46.70
2018-06-15T02:11:38.469Z,43.73
2018-06-15T02:14:06.761Z,47.73
2018-06-15T02:16:35.026Z,46.70
2018-06-15T02:19:03.259Z,47.40
2018-06-15T02:21:31.485Z,48.80
2018-06-15T02:23:59.746Z,51.92
2018-06-15T02:26:27.991Z,48.70
2018-06-15T02:28:56.253Z,52.62
2018-06-15T02:31:24.563Z,52.35
2018-06-15T02:33:52.836Z,48.85
2018-06-15T02:36:21.195Z,56.85
2018-06-15T02:38:49.438Z,55.43
2018-06-15T02:41:18.698Z,56.02
2018-06-15T02:43:46.905Z,56.77
2018-06-15T02:46:15.139Z,58.73
2018-06-15T02:48:43.365Z,60.85
2018-06-15T02:51:11.613Z,63.38
2018-06-15T02:53:40.046Z,66.40
2018-06-15T02:56:08.292Z,61.63
2018-06-15T02:58:36.562Z,55.58
2018-06-15T03:01:05.225Z,56.60
2018-06-15T03:03:33.459Z,59.13
2018-06-15T03:06:01.782Z,55.70
2018-06-15T03:08:30.041Z,55.55
2018-06-15T03:10:58.252Z,55.65
2018-06-15T03:13:26.474Z,56.73
2018-06-15T03:15:54.729Z,55.58
2018-06-15T03:18:23.023Z,59.98
2018-06-15T03:20:51.282Z,60.15
2018-06-15T03:23:19.578Z,53.40
2018-06-15T03:25:47.822Z,56.83
2018-06-15T03:28:16.098Z,54.25
2018-06-15T03:30:44.436Z,57.33
2018-06-15T03:33:12.710Z,46.87
2018-06-15T03:35:40.948Z,48.03
2018-06-15T03:38:09.206Z,48.10
2018-06-15T03:40:37.170Z,47.03
2018-06-15T03:43:05.497Z,47.83
2018-06-15T03:45:33.723Z,50.77
2018-06-15T03:48:01.959Z,51.47
2018-06-15T03:50:30.193Z,57.50
2018-06-15T03:52:58.433Z,48.87
2018-06-15T03:55:26.709Z,47.13
2018-06-15T03:57:54.697Z,61.73
2018-06-15T04:00:23.142Z,53.83
2018-06-15T04:02:51.387Z,60.13
2018-06-15T04:05:19.671Z,52.77
2018-06-15T04:07:47.919Z,54.17
2018-06-15T04:10:16.155Z,50.83
2018-06-15T04:12:44.669Z,53.30
2018-06-15T04:15:12.934Z,52.98
2018-06-15T04:17:41.523Z,53.73
2018-06-15T04:20:09.809Z,53.58
2018-06-15T04:22:38.055Z,51.75
2018-06-15T04:25:06.328Z,51.50
2018-06-15T04:27:34.648Z,52.75
2018-06-15T04:30:02.942Z,59.40
2018-06-15T04:32:31.227Z,52.17
2018-06-15T04:34:59.669Z,52.53
2018-06-15T04:37:28.214Z,48.60
2018-06-15T04:39:57.903Z,52.85
2018-06-15T04:42:26.203Z,50.07
2018-06-15T04:44:54.469Z,49.53
2018-06-15T04:47:22.738Z,50.10
2018-06-15T04:49:51.006Z,49.30
2018-06-15T04:52:19.254Z,48.23
2018-06-15T04:54:47.487Z,47.88
2018-06-15T04:57:15.728Z,50.63
2018-06-15T04:59:44.001Z,49.88
2018-06-15T05:02:12.263Z,47.55
2018-06-15T05:04:40.487Z,48.55
2018-06-15T05:07:08.734Z,46.73
2018-06-15T05:09:36.992Z,46.92
2018-06-15T05:12:05.297Z,48.65
2018-06-15T05:14:33.533Z,46.90
2018-06-15T05:17:01.764Z,45.83
2018-06-15T05:19:30.105Z,44.95
2018-06-15T05:21:58.349Z,45.65
2018-06-15T05:24:26.791Z,45.55
2018-06-15T05:26:55.049Z,46.30
2018-06-15T05:29:23.325Z,46.18
2018-06-15T05:31:51.564Z,47.93
2018-06-15T05:34:19.951Z,44.73
2018-06-15T05:36:48.175Z,46.80
2018-06-15T05:39:16.719Z,42.90
2018-06-15T05:41:45.007Z,44.30
2018-06-15T05:44:13.244Z,44.18
2018-06-15T05:46:41.505Z,44.98
2018-06-15T05:49:09.945Z,42.38
2018-06-15T05:51:38.381Z,44.27
2018-06-15T05:54:06.652Z,48.13
2018-06-15T05:56:34.959Z,45.78
2018-06-15T05:59:03.214Z,43.67
2018-06-15T06:01:31.462Z,45.35
2018-06-15T06:03:59.926Z,45.28
2018-06-15T06:06:28.091Z,41.40
2018-06-15T06:08:56.342Z,42.33
2018-06-15T06:11:24.619Z,42.23
2018-06-15T06:13:52.879Z,41.15
2018-06-15T06:16:21.108Z,41.85
2018-06-15T06:18:49.359Z,42.20
2018-06-15T06:21:17.604Z,40.88
2018-06-15T06:23:45.841Z,40.30
2018-06-15T06:26:14.115Z,41.50
2018-06-15T06:28:42.398Z,39.80
2018-06-15T06:31:10.646Z,38.77
2018-06-15T06:33:38.914Z,36.93
2018-06-15T06:36:07.158Z,35.77
2018-06-15T06:38:35.397Z,37.40
2018-06-15T06:41:03.673Z,37.27
2018-06-15T06:43:31.890Z,34.47
2018-06-15T06:46:00.148Z,37.43
2018-06-15T06:48:28.396Z,36.40
2018-06-15T06:50:56.633Z,42.03
2018-06-15T06:53:24.875Z,37.40
2018-06-15T06:55:53.124Z,34.03
2018-06-15T06:58:21.758Z,36.40
2018-06-15T07:00:50.035Z,40.20
2018-06-15T07:03:18.264Z,32.90
2018-06-15T07:05:46.515Z,34.57
2018-06-15T07:08:14.779Z,35.80
2018-06-15T07:10:42.987Z,31.23
2018-06-15T07:13:11.283Z,35.77
2018-06-15T07:15:39.502Z,44.67
2018-06-15T07:18:07.718Z,35.83
2018-06-15T07:20:35.997Z,33.60
2018-06-15T07:23:04.212Z,39.10
2018-06-15T07:25:32.456Z,36.50
2018-06-15T07:28:00.703Z,31.43
2018-06-15T07:30:28.967Z,33.07
2018-06-15T07:32:57.202Z,35.80
2018-06-15T07:35:25.482Z,33.37
2018-06-15T07:37:53.718Z,38.47
2018-06-15T07:40:22.007Z,31.53
2018-06-15T07:42:50.245Z,32.13
2018-06-15T07:45:18.457Z,35.20
2018-06-15T07:47:46.720Z,37.30
2018-06-15T07:50:14.963Z,32.23
2018-06-15T07:52:43.218Z,34.77
2018-06-15T07:55:11.486Z,28.43
2018-06-15T07:57:39.717Z,29.00
2018-06-15T08:00:07.961Z,27.70
2018-06-15T08:02:36.160Z,23.50
2018-06-15T08:05:04.427Z,28.80
2018-06-15T08:07:32.666Z,22.27
2018-06-15T08:10:00.914Z,24.80
2018-06-15T08:12:29.143Z,24.10
2018-06-15T08:14:57.429Z,25.50
2018-06-15T08:17:25.646Z,25.60
2018-06-15T08:19:53.876Z,27.27
2018-06-15T08:22:22.105Z,21.70
2018-06-15T08:24:50.401Z,24.90
2018-06-15T08:27:18.623Z,24.93
2018-06-15T08:29:46.841Z,21.77
2018-06-15T08:32:15.119Z,28.63
2018-06-15T08:34:43.385Z,20.47
2018-06-15T08:37:11.644Z,21.80
2018-06-15T08:39:39.841Z,21.77
2018-06-15T08:42:08.069Z,21.17
2018-06-15T08:44:36.326Z,22.20
2018-06-15T08:47:04.315Z,26.17
2018-06-15T08:49:32.569Z,22.40
2018-06-15T08:52:00.798Z,23.23
2018-06-15T08:54:29.149Z,21.70
2018-06-15T08:56:57.370Z,23.70
2018-06-15T08:59:25.635Z,22.23
2018-06-15T09:01:53.941Z,23.43
2018-06-15T09:04:22.195Z,23.67
2018-06-15T09:06:50.434Z,24.97
2018-06-15T09:09:18.771Z,23.80
2018-06-15T09:11:47.039Z,27.50
2018-06-15T09:14:15.314Z,22.00
2018-06-15T09:16:43.563Z,23.52
2018-06-15T09:19:11.573Z,23.50
2018-06-15T09:21:39.807Z,21.70
2018-06-15T09:24:08.056Z,24.72
2018-06-15T09:26:36.307Z,23.85
2018-06-15T09:29:04.289Z,25.88
2018-06-15T09:31:32.309Z,23.22
2018-06-15T09:34:00.790Z,23.02
2018-06-15T09:36:29.571Z,20.27
2018-06-15T09:38:57.832Z,21.27
2018-06-15T09:41:26.074Z,23.10
2018-06-15T09:43:54.775Z,19.73
2018-06-15T09:46:23.047Z,22.15
2018-06-15T09:48:51.569Z,21.10
2018-06-15T09:51:19.842Z,20.05
2018-06-15T09:53:48.058Z,21.20
2018-06-15T09:56:16.350Z,20.60
2018-06-15T09:58:44.628Z,19.00
2018-06-15T10:01:12.785Z,20.23
2018-06-15T10:03:41.281Z,18.97
2018-06-15T10:06:09.558Z,19.50
2018-06-15T10:08:37.805Z,18.03
2018-06-15T10:11:06.429Z,21.70
2018-06-15T10:13:34.674Z,20.07
2018-06-15T10:16:02.976Z,20.03
2018-06-15T10:18:31.227Z,18.63
2018-06-15T10:20:59.441Z,25.97
2018-06-15T10:23:27.694Z,19.90
2018-06-15T10:25:56.034Z,18.23
2018-06-15T10:28:24.316Z,19.73
2018-06-15T10:30:52.567Z,20.07
2018-06-15T10:33:20.806Z,17.87
2018-06-15T10:35:49.058Z,19.83
2018-06-15T10:38:17.488Z,20.30
2018-06-15T10:40:45.770Z,18.07
2018-06-15T10:43:14.006Z,18.83
2018-06-15T10:45:42.293Z,16.97
2018-06-15T10:48:10.909Z,17.93
2018-06-15T10:50:39.149Z,15.73
2018-06-15T10:53:07.414Z,15.80
2018-06-15T10:55:35.644Z,16.87
2018-06-15T10:58:03.905Z,15.77
2018-06-15T11:00:32.179Z,15.60
2018-06-15T11:03:00.611Z,13.57
2018-06-15T11:05:28.566Z,15.97
2018-06-15T11:07:56.573Z,14.80
2018-06-15T11:10:24.840Z,14.83
2018-06-15T11:12:53.055Z,16.73
2018-06-15T11:15:21.279Z,17.07
2018-06-15T11:17:49.546Z,16.60
2018-06-15T11:20:17.804Z,15.43
2018-06-15T11:22:46.053Z,16.77
2018-06-15T11:25:14.306Z,17.43
2018-06-15T11:27:42.549Z,17.33
2018-06-15T11:30:10.538Z,19.80
2018-06-15T11:32:39.534Z,16.90
2018-06-15T11:35:07.803Z,18.97
2018-06-15T11:40:03.535Z,16.33
2018-06-15T11:42:31.778Z,15.07
2018-06-15T11:44:59.765Z,14.53
2018-06-15T11:47:28.014Z,15.70
2018-06-15T11:49:56.270Z,14.87
2018-06-15T11:52:24.662Z,15.13
2018-06-15T11:54:52.898Z,15.70
2018-06-15T11:57:21.161Z,15.10
2018-06-15T11:59:49.429Z,16.30
2018-06-15T12:02:17.670Z,15.47
2018-06-15T12:04:45.648Z,15.03
2018-06-15T12:07:13.894Z,14.50
2018-06-15T12:09:42.205Z,13.10
2018-06-15T12:12:10.464Z,15.50
2018-06-15T12:14:38.708Z,13.98
2018-06-15T12:17:06.959Z,14.63
2018-06-15T12:19:35.228Z,14.07
2018-06-15T12:22:03.471Z,14.87
2018-06-15T12:24:31.755Z,14.30
2018-06-15T12:27:00.012Z,12.78
2018-06-15T12:29:28.250Z,13.72
2018-06-15T12:31:56.541Z,14.38
2018-06-15T12:34:24.797Z,14.00
2018-06-15T12:36:53.043Z,12.47
2018-06-15T12:39:21.266Z,12.40
2018-06-15T12:41:49.522Z,13.08
2018-06-15T12:44:17.749Z,12.40
2018-06-15T12:46:45.996Z,14.90
2018-06-15T12:49:14.243Z,15.65
2018-06-15T12:51:42.495Z,14.55
2018-06-15T12:54:10.789Z,13.88
2018-06-15T12:56:39.069Z,16.10
2018-06-15T12:59:07.316Z,15.93
2018-06-15T13:01:35.590Z,14.73
2018-06-15T13:04:03.827Z,15.78
2018-06-15T13:06:32.091Z,17.70
2018-06-15T13:09:00.311Z,15.77
2018-06-15T13:11:28.653Z,16.48
2018-06-15T13:13:56.955Z,15.70
2018-06-15T13:16:25.241Z,14.40
2018-06-15T13:18:53.554Z,16.25
2018-06-15T13:21:21.913Z,16.48
2018-06-15T13:23:50.229Z,16.30
2018-06-15T13:26:18.209Z,16.13
2018-06-15T13:28:46.455Z,15.50
2018-06-15T13:31:14.498Z,15.00
2018-06-15T13:33:49.027Z,13.05
2018-06-15T13:36:17.319Z,14.18
2018-06-15T13:38:45.693Z,15.32
2018-06-15T13:41:14.015Z,15.30
2018-06-15T13:43:42.335Z,14.30
2018-06-15T13:46:10.326Z,15.38
2018-06-15T13:48:38.638Z,14.65
2018-06-15T13:51:06.998Z,15.32
2018-06-15T13:53:35.335Z,15.45
2018-06-15T13:56:03.590Z,14.68
2018-06-15T13:58:32.096Z,15.00
2018-06-15T14:01:00.345Z,14.50
2018-06-15T14:03:28.610Z,13.55
2018-06-15T14:05:56.833Z,9.10
2018-06-15T14:08:24.814Z,10.13
2018-06-15T14:10:52.798Z,9.87
2018-06-15T14:13:21.033Z,11.40
2018-06-15T14:15:49.345Z,12.78
2018-06-15T14:18:17.607Z,11.90
2018-06-15T14:20:45.870Z,11.22
2018-06-15T14:23:14.106Z,10.80
2018-06-15T14:25:42.367Z,10.55
2018-06-15T14:28:10.668Z,10.27
2018-06-15T14:30:39.258Z,11.40
2018-06-15T14:33:07.506Z,11.10
2018-06-15T14:35:35.513Z,10.17
2018-06-15T14:38:04.063Z,10.78
2018-06-15T14:40:32.333Z,9.50
2018-06-15T14:43:00.615Z,9.05
2018-06-15T14:45:28.849Z,9.20
2018-06-15T14:47:56.823Z,9.68
2018-06-15T14:50:24.817Z,8.57
2018-06-15T14:52:53.127Z,9.35
2018-06-15T14:55:21.406Z,8.25
2018-06-15T14:57:49.691Z,8.90
2018-06-15T15:00:17.974Z,8.35
2018-06-15T15:02:46.220Z,8.25
2018-06-15T15:05:14.492Z,9.85
2018-06-15T15:07:42.778Z,7.37
2018-06-15T15:10:10.995Z,7.50
2018-06-15T15:12:39.267Z,7.60
2018-06-15T15:15:07.491Z,8.35
2018-06-15T15:17:35.987Z,8.45
2018-06-15T15:20:04.025Z,7.83
2018-06-15T15:22:32.250Z,8.60
2018-06-15T15:25:00.759Z,8.43
2018-06-15T15:27:29.029Z,8.30
2018-06-15T15:29:57.119Z,8.90
2018-06-15T15:32:25.113Z,8.30
2018-06-15T15:34:53.326Z,8.25
2018-06-15T15:37:21.688Z,8.08
2018-06-15T15:39:49.944Z,8.10
2018-06-15T15:42:18.192Z,7.70
2018-06-15T15:44:46.435Z,7.85
2018-06-15T15:47:14.665Z,8.30
2018-06-15T15:49:42.954Z,8.40
2018-06-15T15:52:11.204Z,8.20
2018-06-15T15:54:39.592Z,7.40
2018-06-15T15:57:07.590Z,6.53
2018-06-15T15:59:35.825Z,7.37
2018-06-15T16:02:04.162Z,7.00
2018-06-15T16:04:32.486Z,6.17
2018-06-15T16:07:00.722Z,7.03
2018-06-15T16:09:28.986Z,6.10
2018-06-15T16:11:57.274Z,6.92
2018-06-15T16:14:25.507Z,6.70
2018-06-15T16:16:53.990Z,7.17
2018-06-15T16:19:22.290Z,7.78
2018-06-15T16:21:50.525Z,10.13
2018-06-15T16:24:18.799Z,9.10
2018-06-15T16:26:47.157Z,7.50
2018-06-15T16:29:15.414Z,6.92
2018-06-15T16:31:43.723Z,6.80
2018-06-15T16:34:11.963Z,7.10
2018-06-15T16:36:40.241Z,6.90
2018-06-15T16:39:09.143Z,6.70
2018-06-15T16:41:37.911Z,7.72
2018-06-15T16:44:11.245Z,7.80
2018-06-15T16:46:39.546Z,6.50
2018-06-15T16:49:09.389Z,7.10
2018-06-15T16:51:37.665Z,7.17
2018-06-15T16:54:06.026Z,6.80
2018-06-15T16:56:34.276Z,8.25
2018-06-15T16:59:02.509Z,8.45
2018-06-15T17:01:43.651Z,9.33
2018-06-15T17:04:19.479Z,8.07
2018-06-15T17:06:51.812Z,7.75
2018-06-15T17:09:20.141Z,7.15
2018-06-15T17:11:54.797Z,7.57
2018-06-15T17:14:23.054Z,7.10
2018-06-15T17:16:51.335Z,7.67
2018-06-15T17:19:21.835Z,8.70
2018-06-15T17:21:58.017Z,8.07
2018-06-15T17:24:27.282Z,8.63
2018-06-15T17:26:56.532Z,8.38
2018-06-15T17:32:03.041Z,7.90
2018-06-15T17:34:31.275Z,8.78
2018-06-15T17:36:59.584Z,8.70
2018-06-15T17:39:27.817Z,8.40
2018-06-15T17:41:56.085Z,8.00
2018-06-15T17:44:24.365Z,8.20
2018-06-15T17:46:52.679Z,8.48
2018-06-15T17:49:20.987Z,8.63
2018-06-15T17:51:49.356Z,8.00
2018-06-15T17:54:17.594Z,8.30
2018-06-15T17:56:45.835Z,7.83
2018-06-15T17:59:14.089Z,8.05
2018-06-15T18:01:42.306Z,8.00
2018-06-15T18:04:10.573Z,7.67
2018-06-15T18:06:38.828Z,8.10
2018-06-15T18:09:08.635Z,7.35
2018-06-15T18:11:36.943Z,7.78
2018-06-15T18:14:05.261Z,7.30
2018-06-15T18:16:33.649Z,9.28
2018-06-15T18:19:01.905Z,8.20
2018-06-15T18:21:30.152Z,7.80
2018-06-15T18:23:58.440Z,8.73
2018-06-15T18:26:26.659Z,23.90
2018-06-15T18:28:54.966Z,10.53
2018-06-15T18:31:23.008Z,17.85
2018-06-15T18:33:51.296Z,24.77
2018-06-15T18:36:19.591Z,8.68
2018-06-15T18:38:47.836Z,7.15
2018-06-15T18:41:16.123Z,7.87
2018-06-15T18:43:44.367Z,7.47
2018-06-15T18:46:12.596Z,6.90
2018-06-15T18:48:40.837Z,7.00
2018-06-15T18:51:09.109Z,7.45
2018-06-15T18:53:37.364Z,7.97
2018-06-15T18:56:05.630Z,7.80
2018-06-15T18:58:34.755Z,8.03
2018-06-15T19:01:02.988Z,7.60
2018-06-15T19:03:31.236Z,7.50
2018-06-15T19:05:59.520Z,8.20
2018-06-15T19:08:27.768Z,9.00
2018-06-15T19:10:56.013Z,8.63
2018-06-15T19:13:24.301Z,9.47
2018-06-15T19:15:52.567Z,7.30
2018-06-15T19:18:20.837Z,8.00
2018-06-15T19:20:49.059Z,7.40
2018-06-15T19:23:17.275Z,7.00
2018-06-15T19:25:45.534Z,7.17
2018-06-15T19:28:13.772Z,7.28
2018-06-15T19:30:42.035Z,9.93
2018-06-15T19:33:10.273Z,9.43
2018-06-15T19:35:38.565Z,8.80
2018-06-15T19:38:06.824Z,9.85
2018-06-15T19:40:35.042Z,8.20
2018-06-15T19:43:03.413Z,8.60
2018-06-15T19:45:31.401Z,10.13
2018-06-15T19:47:59.647Z,9.25
2018-06-15T19:50:27.945Z,13.53
2018-06-15T19:52:56.241Z,13.80
2018-06-15T19:55:24.527Z,12.73
2018-06-15T19:57:52.775Z,10.68
2018-06-15T20:00:21.075Z,11.33
2018-06-15T20:02:49.368Z,14.60
2018-06-15T20:05:17.608Z,12.15
2018-06-15T20:07:45.911Z,21.10
2018-06-15T20:10:14.141Z,11.22
2018-06-15T20:12:42.355Z,12.67
2018-06-15T20:15:10.593Z,9.35
2018-06-15T20:17:38.864Z,9.50
2018-06-15T20:20:07.261Z,9.50
2018-06-15T20:22:35.529Z,10.58
2018-06-15T20:25:03.520Z,9.80
2018-06-15T20:27:31.758Z,9.63
2018-06-15T20:30:02.668Z,15.70
2018-06-15T20:32:36.349Z,15.10
2018-06-15T20:35:08.191Z,11.38
2018-06-15T20:37:36.599Z,10.48
2018-06-15T20:42:56.358Z,10.48
2018-06-15T20:45:24.745Z,12.82
2018-06-15T20:47:52.761Z,12.30
2018-06-15T20:50:24.607Z,13.50
2018-06-15T20:52:52.898Z,15.28
2018-06-15T20:55:21.195Z,12.58
2018-06-15T20:57:49.567Z,11.57
2018-06-15T21:00:17.567Z,12.87
2018-06-15T21:02:45.536Z,12.57
2018-06-15T21:05:13.804Z,12.60
2018-06-15T21:07:42.043Z,14.80
2018-06-15T21:10:10.380Z,16.15
2018-06-15T21:12:38.660Z,15.75
2018-06-15T21:15:07.561Z,14.45
2018-06-15T21:17:35.873Z,20.27
2018-06-15T21:20:04.137Z,14.03
2018-06-15T21:22:32.407Z,14.00
2018-06-15T21:25:00.764Z,15.00
2018-06-15T21:27:28.881Z,15.00
2018-06-15T21:29:58.447Z,15.03
2018-06-15T21:32:28.614Z,20.90
2018-06-15T21:34:58.410Z,16.97
2018-06-15T21:37:27.601Z,15.98
2018-06-15T21:39:56.519Z,15.13
2018-06-15T21:42:26.279Z,15.30
2018-06-15T21:44:57.556Z,14.13
2018-06-15T21:47:29.490Z,16.00
2018-06-15T21:49:58.123Z,16.90
2018-06-15T21:52:26.407Z,17.00
2018-06-15T21:54:54.895Z,19.05
2018-06-15T21:57:23.311Z,18.17
2018-06-15T21:59:51.587Z,17.77
2018-06-15T22:02:19.917Z,17.17
2018-06-15T22:04:48.149Z,17.30
2018-06-15T22:07:16.527Z,16.65
2018-06-15T22:09:44.807Z,17.60
2018-06-15T22:12:13.073Z,16.80
2018-06-15T22:14:42.771Z,17.82
2018-06-15T22:17:11.303Z,18.50
2018-06-15T22:19:39.582Z,17.00
2018-06-15T22:22:07.858Z,16.67
2018-06-15T22:24:36.222Z,18.55
2018-06-15T22:27:04.611Z,18.23
2018-06-15T22:29:32.980Z,18.35
2018-06-15T22:32:01.457Z,17.35
2018-06-15T22:34:29.738Z,20.65
2018-06-15T22:36:57.999Z,20.97
2018-06-15T22:39:27.746Z,20.25
2018-06-15T22:41:55.964Z,18.50
2018-06-15T22:44:26.922Z,19.98
2018-06-15T22:46:55.212Z,18.35
2018-06-15T22:49:23.499Z,19.70
2018-06-15T22:51:51.742Z,20.00
2018-06-15T22:54:20.063Z,20.08
2018-06-15T22:56:48.072Z,19.37
2018-06-15T22:59:16.357Z,19.10
2018-06-15T23:01:44.658Z,19.00
2018-06-15T23:04:12.920Z,18.52
2018-06-15T23:06:41.191Z,19.27
2018-06-15T23:09:10.854Z,20.03
2018-06-15T23:11:39.326Z,19.60
2018-06-15T23:14:07.598Z,18.77
2018-06-15T23:16:35.600Z,18.80
2018-06-15T23:19:03.887Z,20.73
2018-06-15T23:21:32.143Z,21.42
2018-06-15T23:24:00.402Z,21.07
2018-06-15T23:26:28.608Z,22.48
2018-06-15T23:28:56.918Z,22.85
2018-06-15T23:31:25.134Z,25.97
2018-06-15T23:33:53.406Z,22.40
2018-06-15T23:36:21.658Z,22.80
2018-06-15T23:38:49.917Z,22.93
2018-06-15T23:41:18.222Z,22.87
2018-06-15T23:43:46.509Z,22.27
2018-06-15T23:46:14.762Z,23.85
2018-06-15T23:48:43.229Z,24.47
2018-06-15T23:51:11.518Z,25.00
2018-06-15T23:53:39.765Z,24.87
2018-06-15T23:56:08.882Z,25.65
2018-06-15T23:58:37.119Z,25.55
